sensor_id;sensor_type;location;lat;lon;timestamp;P1;durP1;ratioP1;P2;durP2;ratioP2
41709;SDS011;59402;48.396;-4.472;2023-02-28T00:00:33;16.92;;;2.58;;
41709;SDS011;59402;48.396;-4.472;2023-02-28T00:02:59;11.18;;;1.42;;
41709;SDS011;59402;48.396;-4.472;2023-02-28T00:05:26;11.15;;;2.28;;
41709;SDS011;59402;48.396;-4.472;2023-02-28T00:07:52;9.27;;;1.83;;
41709;SDS011;59402;48.396;-4.472;2023-02-28T00:10:19;9.40;;;2.20;;
41709;SDS011;59402;48.396;-4.472;2023-02-28T00:12:48;11.55;;;2.30;;
41709;SDS011;59402;48.396;-4.472;2023-02-28T00:15:17;11.68;;;2.08;;
41709;SDS011;59402;48.396;-4.472;2023-02-28T00:17:43;15.35;;;2.10;;
41709;SDS011;59402;48.396;-4.472;2023-02-28T00:20:10;10.38;;;2.00;;
41709;SDS011;59402;48.396;-4.472;2023-02-28T00:22:41;10.88;;;2.22;;
41709;SDS011;59402;48.396;-4.472;2023-02-28T00:25:09;16.23;;;2.65;;
41709;SDS011;59402;48.396;-4.472;2023-02-28T00:27:37;8.45;;;1.80;;
41709;SDS011;59402;48.396;-4.472;2023-02-28T00:30:03;12.30;;;2.40;;
41709;SDS011;59402;48.396;-4.472;2023-02-28T00:32:30;12.85;;;2.28;;
41709;SDS011;59402;48.396;-4.472;2023-02-28T00:34:56;9.38;;;2.03;;
41709;SDS011;59402;48.396;-4.472;2023-02-28T00:37:22;7.75;;;1.77;;
41709;SDS011;59402;48.396;-4.472;2023-02-28T00:39:47;7.35;;;1.83;;
41709;SDS011;59402;48.396;-4.472;2023-02-28T00:42:14;6.25;;;1.67;;
41709;SDS011;59402;48.396;-4.472;2023-02-28T00:44:40;9.05;;;2.08;;
41709;SDS011;59402;48.396;-4.472;2023-02-28T00:47:06;11.00;;;1.70;;
41709;SDS011;59402;48.396;-4.472;2023-02-28T00:49:32;12.65;;;2.20;;
41709;SDS011;59402;48.396;-4.472;2023-02-28T00:51:58;6.95;;;1.60;;
41709;SDS011;59402;48.396;-4.472;2023-02-28T00:54:25;10.17;;;1.80;;
41709;SDS011;59402;48.396;-4.472;2023-02-28T00:56:51;13.02;;;2.63;;
41709;SDS011;59402;48.396;-4.472;2023-02-28T00:59:17;10.88;;;1.88;;
41709;SDS011;59402;48.396;-4.472;2023-02-28T01:01:44;6.88;;;1.85;;
41709;SDS011;59402;48.396;-4.472;2023-02-28T01:04:10;9.88;;;1.95;;
41709;SDS011;59402;48.396;-4.472;2023-02-28T01:06:39;15.20;;;2.17;;
41709;SDS011;59402;48.396;-4.472;2023-02-28T01:09:05;9.80;;;1.85;;
41709;SDS011;59402;48.396;-4.472;2023-02-28T01:11:32;8.35;;;1.73;;
41709;SDS011;59402;48.396;-4.472;2023-02-28T01:13:58;9.07;;;1.70;;
41709;SDS011;59402;48.396;-4.472;2023-02-28T01:16:24;12.13;;;2.30;;
41709;SDS011;59402;48.396;-4.472;2023-02-28T01:18:50;9.57;;;2.05;;
41709;SDS011;59402;48.396;-4.472;2023-02-28T01:21:16;7.30;;;1.75;;
41709;SDS011;59402;48.396;-4.472;2023-02-28T01:23:43;9.75;;;2.25;;
41709;SDS011;59402;48.396;-4.472;2023-02-28T01:28:38;5.70;;;1.55;;
41709;SDS011;59402;48.396;-4.472;2023-02-28T01:31:04;5.75;;;1.70;;
41709;SDS011;59402;48.396;-4.472;2023-02-28T01:33:30;8.40;;;1.67;;
41709;SDS011;59402;48.396;-4.472;2023-02-28T01:38:28;9.20;;;1.77;;
41709;SDS011;59402;48.396;-4.472;2023-02-28T01:40:54;8.88;;;1.98;;
41709;SDS011;59402;48.396;-4.472;2023-02-28T01:43:21;10.98;;;2.20;;
41709;SDS011;59402;48.396;-4.472;2023-02-28T01:45:49;9.15;;;1.98;;
41709;SDS011;59402;48.396;-4.472;2023-02-28T01:48:15;10.95;;;1.92;;
41709;SDS011;59402;48.396;-4.472;2023-02-28T01:50:43;10.98;;;2.40;;
41709;SDS011;59402;48.396;-4.472;2023-02-28T01:53:12;10.55;;;1.80;;
41709;SDS011;59402;48.396;-4.472;2023-02-28T01:55:40;9.82;;;1.92;;
41709;SDS011;59402;48.396;-4.472;2023-02-28T01:58:07;8.57;;;1.93;;
41709;SDS011;59402;48.396;-4.472;2023-02-28T02:00:34;8.68;;;1.80;;
41709;SDS011;59402;48.396;-4.472;2023-02-28T02:03:01;6.93;;;1.70;;
41709;SDS011;59402;48.396;-4.472;2023-02-28T02:05:31;9.23;;;1.80;;
41709;SDS011;59402;48.396;-4.472;2023-02-28T02:08:02;12.70;;;1.77;;
41709;SDS011;59402;48.396;-4.472;2023-02-28T02:10:32;9.23;;;2.20;;
41709;SDS011;59402;48.396;-4.472;2023-02-28T02:15:35;8.55;;;1.77;;
41709;SDS011;59402;48.396;-4.472;2023-02-28T02:21:54;9.68;;;1.90;;
41709;SDS011;59402;48.396;-4.472;2023-02-28T02:35:26;9.35;;;1.52;;
41709;SDS011;59402;48.396;-4.472;2023-02-28T02:40:38;8.60;;;1.75;;
41709;SDS011;59402;48.396;-4.472;2023-02-28T02:43:26;7.80;;;1.52;;
41709;SDS011;59402;48.396;-4.472;2023-02-28T02:45:59;9.93;;;1.80;;
41709;SDS011;59402;48.396;-4.472;2023-02-28T02:48:32;10.80;;;1.63;;
41709;SDS011;59402;48.396;-4.472;2023-02-28T02:51:00;11.85;;;1.80;;
41709;SDS011;59402;48.396;-4.472;2023-02-28T02:53:32;11.20;;;1.92;;
41709;SDS011;59402;48.396;-4.472;2023-02-28T02:56:01;12.88;;;1.80;;
41709;SDS011;59402;48.396;-4.472;2023-02-28T02:58:30;10.27;;;2.15;;
41709;SDS011;59402;48.396;-4.472;2023-02-28T03:01:00;11.45;;;1.38;;
41709;SDS011;59402;48.396;-4.472;2023-02-28T03:03:27;12.32;;;1.63;;
41709;SDS011;59402;48.396;-4.472;2023-02-28T03:05:58;13.25;;;1.65;;
41709;SDS011;59402;48.396;-4.472;2023-02-28T03:08:25;10.05;;;1.67;;
41709;SDS011;59402;48.396;-4.472;2023-02-28T03:10:55;7.57;;;2.17;;
41709;SDS011;59402;48.396;-4.472;2023-02-28T03:18:50;11.35;;;2.00;;
41709;SDS011;59402;48.396;-4.472;2023-02-28T03:24:10;9.43;;;1.55;;
41709;SDS011;59402;48.396;-4.472;2023-02-28T03:26:58;11.35;;;2.03;;
41709;SDS011;59402;48.396;-4.472;2023-02-28T03:29:35;9.43;;;1.50;;
41709;SDS011;59402;48.396;-4.472;2023-02-28T03:34:33;6.57;;;1.48;;
41709;SDS011;59402;48.396;-4.472;2023-02-28T03:37:02;10.50;;;2.00;;
41709;SDS011;59402;48.396;-4.472;2023-02-28T03:39:39;9.18;;;1.85;;
41709;SDS011;59402;48.396;-4.472;2023-02-28T03:42:24;8.68;;;1.80;;
41709;SDS011;59402;48.396;-4.472;2023-02-28T03:45:00;11.38;;;1.80;;
41709;SDS011;59402;48.396;-4.472;2023-02-28T03:47:29;7.15;;;1.42;;
41709;SDS011;59402;48.396;-4.472;2023-02-28T03:50:02;8.95;;;1.55;;
41709;SDS011;59402;48.396;-4.472;2023-02-28T03:55:04;9.93;;;1.77;;
41709;SDS011;59402;48.396;-4.472;2023-02-28T04:00:06;6.38;;;1.83;;
41709;SDS011;59402;48.396;-4.472;2023-02-28T04:02:56;9.10;;;1.30;;
41709;SDS011;59402;48.396;-4.472;2023-02-28T04:05:22;7.22;;;1.67;;
41709;SDS011;59402;48.396;-4.472;2023-02-28T04:07:48;10.38;;;1.50;;
41709;SDS011;59402;48.396;-4.472;2023-02-28T04:10:14;13.48;;;2.50;;
41709;SDS011;59402;48.396;-4.472;2023-02-28T04:12:40;9.55;;;1.50;;
41709;SDS011;59402;48.396;-4.472;2023-02-28T04:15:06;9.02;;;1.58;;
41709;SDS011;59402;48.396;-4.472;2023-02-28T04:17:32;10.70;;;2.30;;
41709;SDS011;59402;48.396;-4.472;2023-02-28T04:19:58;13.43;;;1.95;;
41709;SDS011;59402;48.396;-4.472;2023-02-28T04:22:24;10.48;;;2.15;;
41709;SDS011;59402;48.396;-4.472;2023-02-28T04:24:52;12.88;;;1.75;;
41709;SDS011;59402;48.396;-4.472;2023-02-28T04:27:19;9.20;;;1.80;;
41709;SDS011;59402;48.396;-4.472;2023-02-28T04:29:46;8.27;;;1.93;;
41709;SDS011;59402;48.396;-4.472;2023-02-28T04:32:12;8.75;;;1.55;;
41709;SDS011;59402;48.396;-4.472;2023-02-28T04:34:38;8.98;;;1.90;;
41709;SDS011;59402;48.396;-4.472;2023-02-28T04:37:03;6.43;;;1.42;;
41709;SDS011;59402;48.396;-4.472;2023-02-28T04:39:30;5.90;;;1.27;;
41709;SDS011;59402;48.396;-4.472;2023-02-28T04:41:55;11.93;;;1.75;;
41709;SDS011;59402;48.396;-4.472;2023-02-28T04:44:21;9.52;;;2.47;;
41709;SDS011;59402;48.396;-4.472;2023-02-28T04:46:48;11.40;;;1.55;;
41709;SDS011;59402;48.396;-4.472;2023-02-28T04:49:14;8.68;;;1.40;;
41709;SDS011;59402;48.396;-4.472;2023-02-28T04:51:40;9.77;;;2.08;;
41709;SDS011;59402;48.396;-4.472;2023-02-28T04:54:06;10.63;;;1.85;;
41709;SDS011;59402;48.396;-4.472;2023-02-28T04:56:32;9.90;;;1.88;;
41709;SDS011;59402;48.396;-4.472;2023-02-28T04:58:58;7.28;;;1.58;;
41709;SDS011;59402;48.396;-4.472;2023-02-28T05:01:25;10.93;;;1.83;;
41709;SDS011;59402;48.396;-4.472;2023-02-28T05:03:53;8.73;;;1.60;;
41709;SDS011;59402;48.396;-4.472;2023-02-28T05:06:20;8.10;;;1.40;;
41709;SDS011;59402;48.396;-4.472;2023-02-28T05:08:47;5.28;;;1.63;;
41709;SDS011;59402;48.396;-4.472;2023-02-28T05:13:43;9.10;;;1.75;;
41709;SDS011;59402;48.396;-4.472;2023-02-28T05:16:09;11.05;;;1.67;;
41709;SDS011;59402;48.396;-4.472;2023-02-28T05:18:35;7.57;;;1.52;;
41709;SDS011;59402;48.396;-4.472;2023-02-28T05:21:01;7.88;;;1.55;;
41709;SDS011;59402;48.396;-4.472;2023-02-28T05:23:27;10.23;;;1.80;;
41709;SDS011;59402;48.396;-4.472;2023-02-28T05:25:53;10.13;;;1.90;;
41709;SDS011;59402;48.396;-4.472;2023-02-28T05:28:19;8.52;;;1.77;;
41709;SDS011;59402;48.396;-4.472;2023-02-28T05:30:46;10.57;;;1.67;;
41709;SDS011;59402;48.396;-4.472;2023-02-28T05:33:12;10.13;;;2.00;;
41709;SDS011;59402;48.396;-4.472;2023-02-28T05:35:38;10.07;;;1.30;;
41709;SDS011;59402;48.396;-4.472;2023-02-28T05:38:05;7.40;;;1.55;;
41709;SDS011;59402;48.396;-4.472;2023-02-28T05:40:31;9.95;;;1.67;;
41709;SDS011;59402;48.396;-4.472;2023-02-28T05:42:56;8.27;;;1.65;;
41709;SDS011;59402;48.396;-4.472;2023-02-28T05:45:22;9.90;;;1.58;;
41709;SDS011;59402;48.396;-4.472;2023-02-28T05:47:48;10.45;;;1.70;;
41709;SDS011;59402;48.396;-4.472;2023-02-28T05:50:13;6.45;;;1.25;;
41709;SDS011;59402;48.396;-4.472;2023-02-28T05:52:39;7.65;;;1.88;;
41709;SDS011;59402;48.396;-4.472;2023-02-28T05:55:05;6.75;;;1.90;;
41709;SDS011;59402;48.396;-4.472;2023-02-28T05:57:32;5.80;;;1.65;;
41709;SDS011;59402;48.396;-4.472;2023-02-28T05:59:57;5.22;;;1.38;;
41709;SDS011;59402;48.396;-4.472;2023-02-28T06:02:23;7.65;;;1.77;;
41709;SDS011;59402;48.396;-4.472;2023-02-28T06:04:49;8.65;;;2.00;;
41709;SDS011;59402;48.396;-4.472;2023-02-28T06:07:14;10.05;;;1.83;;
41709;SDS011;59402;48.396;-4.472;2023-02-28T06:09:42;10.63;;;2.10;;
41709;SDS011;59402;48.396;-4.472;2023-02-28T06:12:08;9.52;;;1.98;;
41709;SDS011;59402;48.396;-4.472;2023-02-28T06:14:35;6.80;;;1.90;;
41709;SDS011;59402;48.396;-4.472;2023-02-28T06:17:01;6.82;;;1.90;;
41709;SDS011;59402;48.396;-4.472;2023-02-28T06:19:27;5.53;;;1.77;;
41709;SDS011;59402;48.396;-4.472;2023-02-28T06:21:55;10.70;;;2.00;;
41709;SDS011;59402;48.396;-4.472;2023-02-28T06:24:22;8.27;;;2.38;;
41709;SDS011;59402;48.396;-4.472;2023-02-28T06:26:49;10.37;;;1.90;;
41709;SDS011;59402;48.396;-4.472;2023-02-28T06:29:15;9.27;;;2.38;;
41709;SDS011;59402;48.396;-4.472;2023-02-28T06:31:42;8.50;;;1.88;;
41709;SDS011;59402;48.396;-4.472;2023-02-28T06:35:51;9.85;;;2.20;;
41709;SDS011;59402;48.396;-4.472;2023-02-28T06:38:16;10.05;;;2.13;;
41709;SDS011;59402;48.396;-4.472;2023-02-28T06:40:43;6.30;;;2.08;;
41709;SDS011;59402;48.396;-4.472;2023-02-28T06:43:08;8.40;;;2.42;;
41709;SDS011;59402;48.396;-4.472;2023-02-28T06:45:34;10.25;;;1.70;;
41709;SDS011;59402;48.396;-4.472;2023-02-28T06:47:59;8.52;;;2.22;;
41709;SDS011;59402;48.396;-4.472;2023-02-28T06:50:25;9.73;;;2.28;;
41709;SDS011;59402;48.396;-4.472;2023-02-28T06:52:50;9.07;;;2.20;;
41709;SDS011;59402;48.396;-4.472;2023-02-28T06:55:19;10.13;;;2.33;;
41709;SDS011;59402;48.396;-4.472;2023-02-28T06:57:44;6.82;;;2.50;;
41709;SDS011;59402;48.396;-4.472;2023-02-28T07:00:09;7.10;;;2.58;;
41709;SDS011;59402;48.396;-4.472;2023-02-28T07:02:35;9.52;;;2.72;;
41709;SDS011;59402;48.396;-4.472;2023-02-28T07:05:01;10.25;;;2.88;;
41709;SDS011;59402;48.396;-4.472;2023-02-28T07:07:26;13.15;;;2.85;;
41709;SDS011;59402;48.396;-4.472;2023-02-28T07:09:52;7.97;;;3.10;;
41709;SDS011;59402;48.396;-4.472;2023-02-28T07:12:17;8.10;;;3.30;;
41709;SDS011;59402;48.396;-4.472;2023-02-28T07:14:42;8.05;;;3.25;;
41709;SDS011;59402;48.396;-4.472;2023-02-28T07:17:09;12.10;;;4.10;;
41709;SDS011;59402;48.396;-4.472;2023-02-28T07:19:36;8.80;;;3.53;;
41709;SDS011;59402;48.396;-4.472;2023-02-28T07:22:01;14.50;;;4.38;;
41709;SDS011;59402;48.396;-4.472;2023-02-28T07:24:28;8.98;;;4.22;;
41709;SDS011;59402;48.396;-4.472;2023-02-28T07:26:54;11.25;;;4.43;;
41709;SDS011;59402;48.396;-4.472;2023-02-28T07:29:19;11.52;;;4.53;;
41709;SDS011;59402;48.396;-4.472;2023-02-28T07:31:45;12.02;;;4.20;;
41709;SDS011;59402;48.396;-4.472;2023-02-28T07:34:11;11.30;;;4.07;;
41709;SDS011;59402;48.396;-4.472;2023-02-28T07:36:38;9.95;;;4.18;;
41709;SDS011;59402;48.396;-4.472;2023-02-28T07:39:03;11.45;;;4.82;;
41709;SDS011;59402;48.396;-4.472;2023-02-28T07:41:29;8.68;;;4.53;;
41709;SDS011;59402;48.396;-4.472;2023-02-28T07:43:58;10.90;;;5.57;;
41709;SDS011;59402;48.396;-4.472;2023-02-28T07:46:25;10.48;;;5.13;;
41709;SDS011;59402;48.396;-4.472;2023-02-28T07:48:50;11.23;;;5.35;;
41709;SDS011;59402;48.396;-4.472;2023-02-28T07:53:31;11.05;;;5.68;;
41709;SDS011;59402;48.396;-4.472;2023-02-28T07:56:00;13.27;;;5.65;;
41709;SDS011;59402;48.396;-4.472;2023-02-28T07:58:27;13.48;;;5.93;;
41709;SDS011;59402;48.396;-4.472;2023-02-28T08:00:54;12.27;;;5.55;;
41709;SDS011;59402;48.396;-4.472;2023-02-28T08:03:20;11.52;;;5.95;;
41709;SDS011;59402;48.396;-4.472;2023-02-28T08:05:47;13.90;;;5.90;;
41709;SDS011;59402;48.396;-4.472;2023-02-28T08:08:17;13.15;;;5.75;;
41709;SDS011;59402;48.396;-4.472;2023-02-28T08:10:43;11.40;;;6.03;;
41709;SDS011;59402;48.396;-4.472;2023-02-28T08:13:09;12.13;;;6.05;;
41709;SDS011;59402;48.396;-4.472;2023-02-28T08:15:34;13.10;;;6.75;;
41709;SDS011;59402;48.396;-4.472;2023-02-28T08:18:01;11.13;;;6.07;;
41709;SDS011;59402;48.396;-4.472;2023-02-28T08:20:27;13.52;;;6.82;;
41709;SDS011;59402;48.396;-4.472;2023-02-28T08:22:53;15.38;;;6.55;;
41709;SDS011;59402;48.396;-4.472;2023-02-28T08:25:18;9.82;;;6.35;;
41709;SDS011;59402;48.396;-4.472;2023-02-28T08:27:45;13.98;;;6.60;;
41709;SDS011;59402;48.396;-4.472;2023-02-28T08:30:11;14.45;;;6.40;;
41709;SDS011;59402;48.396;-4.472;2023-02-28T08:32:38;15.38;;;7.03;;
41709;SDS011;59402;48.396;-4.472;2023-02-28T08:35:04;14.68;;;6.70;;
41709;SDS011;59402;48.396;-4.472;2023-02-28T08:37:30;14.95;;;7.00;;
41709;SDS011;59402;48.396;-4.472;2023-02-28T08:39:56;14.32;;;7.40;;
41709;SDS011;59402;48.396;-4.472;2023-02-28T08:42:22;13.85;;;7.07;;
41709;SDS011;59402;48.396;-4.472;2023-02-28T08:44:48;12.20;;;8.10;;
41709;SDS011;59402;48.396;-4.472;2023-02-28T08:47:14;13.25;;;7.22;;
41709;SDS011;59402;48.396;-4.472;2023-02-28T08:49:40;14.63;;;7.13;;
41709;SDS011;59402;48.396;-4.472;2023-02-28T08:52:05;13.63;;;7.82;;
41709;SDS011;59402;48.396;-4.472;2023-02-28T08:54:31;13.43;;;7.55;;
41709;SDS011;59402;48.396;-4.472;2023-02-28T08:56:58;12.87;;;7.97;;
41709;SDS011;59402;48.396;-4.472;2023-02-28T08:59:24;14.45;;;7.47;;
41709;SDS011;59402;48.396;-4.472;2023-02-28T09:01:49;13.40;;;7.57;;
41709;SDS011;59402;48.396;-4.472;2023-02-28T09:04:15;11.82;;;7.40;;
41709;SDS011;59402;48.396;-4.472;2023-02-28T09:06:41;12.13;;;7.22;;
41709;SDS011;59402;48.396;-4.472;2023-02-28T09:09:06;12.48;;;7.72;;
41709;SDS011;59402;48.396;-4.472;2023-02-28T09:11:33;15.48;;;7.55;;
41709;SDS011;59402;48.396;-4.472;2023-02-28T09:14:00;14.90;;;7.45;;
41709;SDS011;59402;48.396;-4.472;2023-02-28T09:16:28;13.65;;;7.40;;
41709;SDS011;59402;48.396;-4.472;2023-02-28T09:18:54;13.10;;;7.45;;
41709;SDS011;59402;48.396;-4.472;2023-02-28T09:21:20;12.00;;;7.93;;
41709;SDS011;59402;48.396;-4.472;2023-02-28T09:23:46;16.90;;;8.20;;
41709;SDS011;59402;48.396;-4.472;2023-02-28T09:26:17;14.23;;;8.40;;
41709;SDS011;59402;48.396;-4.472;2023-02-28T09:28:47;12.27;;;8.10;;
41709;SDS011;59402;48.396;-4.472;2023-02-28T09:31:14;14.50;;;7.65;;
41709;SDS011;59402;48.396;-4.472;2023-02-28T09:33:46;13.10;;;7.63;;
41709;SDS011;59402;48.396;-4.472;2023-02-28T09:36:13;14.95;;;7.50;;
41709;SDS011;59402;48.396;-4.472;2023-02-28T09:38:38;12.85;;;8.02;;
41709;SDS011;59402;48.396;-4.472;2023-02-28T09:41:10;27.73;;;9.85;;
41709;SDS011;59402;48.396;-4.472;2023-02-28T09:43:40;24.40;;;9.13;;
41709;SDS011;59402;48.396;-4.472;2023-02-28T09:49:00;53.00;;;11.65;;
41709;SDS011;59402;48.396;-4.472;2023-02-28T09:51:40;95.00;;;17.15;;
41709;SDS011;59402;48.396;-4.472;2023-02-28T09:54:16;46.40;;;11.30;;
41709;SDS011;59402;48.396;-4.472;2023-02-28T09:56:44;31.90;;;9.05;;
41709;SDS011;59402;48.396;-4.472;2023-02-28T10:02:21;14.73;;;7.20;;
41709;SDS011;59402;48.396;-4.472;2023-02-28T10:05:12;13.32;;;7.18;;
41709;SDS011;59402;48.396;-4.472;2023-02-28T10:10:28;10.98;;;7.88;;
41709;SDS011;59402;48.396;-4.472;2023-02-28T10:12:58;15.23;;;7.43;;
41709;SDS011;59402;48.396;-4.472;2023-02-28T10:15:27;13.90;;;7.80;;
41709;SDS011;59402;48.396;-4.472;2023-02-28T10:17:57;14.05;;;8.10;;
41709;SDS011;59402;48.396;-4.472;2023-02-28T10:20:25;14.27;;;7.65;;
41709;SDS011;59402;48.396;-4.472;2023-02-28T10:25:44;13.00;;;7.20;;
41709;SDS011;59402;48.396;-4.472;2023-02-28T10:28:31;11.18;;;6.80;;
41709;SDS011;59402;48.396;-4.472;2023-02-28T10:30:57;15.07;;;7.47;;
41709;SDS011;59402;48.396;-4.472;2023-02-28T10:33:25;17.80;;;7.90;;
41709;SDS011;59402;48.396;-4.472;2023-02-28T10:35:54;14.90;;;7.50;;
41709;SDS011;59402;48.396;-4.472;2023-02-28T10:38:27;13.57;;;6.80;;
41709;SDS011;59402;48.396;-4.472;2023-02-28T10:41:42;10.07;;;5.95;;
41709;SDS011;59402;48.396;-4.472;2023-02-28T10:43:53;12.43;;;5.55;;
41709;SDS011;59402;48.396;-4.472;2023-02-28T10:46:43;10.15;;;5.80;;
41709;SDS011;59402;48.396;-4.472;2023-02-28T10:49:14;11.07;;;5.50;;
41709;SDS011;59402;48.396;-4.472;2023-02-28T10:51:57;10.20;;;5.65;;
41709;SDS011;59402;48.396;-4.472;2023-02-28T10:54:26;11.70;;;5.45;;
41709;SDS011;59402;48.396;-4.472;2023-02-28T10:59:52;8.98;;;5.70;;
41709;SDS011;59402;48.396;-4.472;2023-02-28T11:02:35;11.55;;;5.65;;
41709;SDS011;59402;48.396;-4.472;2023-02-28T11:05:02;13.57;;;5.97;;
41709;SDS011;59402;48.396;-4.472;2023-02-28T11:07:51;9.32;;;5.38;;
41709;SDS011;59402;48.396;-4.472;2023-02-28T11:10:21;12.13;;;5.90;;
41709;SDS011;59402;48.396;-4.472;2023-02-28T11:12:53;10.98;;;5.90;;
41709;SDS011;59402;48.396;-4.472;2023-02-28T11:17:52;8.93;;;6.18;;
41709;SDS011;59402;48.396;-4.472;2023-02-28T11:20:21;13.20;;;7.10;;
41709;SDS011;59402;48.396;-4.472;2023-02-28T11:22:49;14.32;;;6.72;;
41709;SDS011;59402;48.396;-4.472;2023-02-28T11:25:19;11.82;;;7.03;;
41709;SDS011;59402;48.396;-4.472;2023-02-28T11:27:57;10.82;;;6.35;;
41709;SDS011;59402;48.396;-4.472;2023-02-28T11:30:37;11.52;;;5.97;;
41709;SDS011;59402;48.396;-4.472;2023-02-28T11:36:10;19.90;;;7.57;;
41709;SDS011;59402;48.396;-4.472;2023-02-28T11:38:47;28.23;;;8.57;;
41709;SDS011;59402;48.396;-4.472;2023-02-28T11:44:04;15.80;;;7.72;;
41709;SDS011;59402;48.396;-4.472;2023-02-28T11:46:47;19.27;;;7.82;;
41709;SDS011;59402;48.396;-4.472;2023-02-28T11:57:41;11.52;;;4.78;;
41709;SDS011;59402;48.396;-4.472;2023-02-28T12:05:42;8.20;;;4.05;;
41709;SDS011;59402;48.396;-4.472;2023-02-28T12:22:52;10.85;;;3.45;;
41709;SDS011;59402;48.396;-4.472;2023-02-28T12:25:28;8.57;;;2.60;;
41709;SDS011;59402;48.396;-4.472;2023-02-28T12:28:20;10.30;;;2.70;;
41709;SDS011;59402;48.396;-4.472;2023-02-28T12:30:51;4.63;;;1.95;;
41709;SDS011;59402;48.396;-4.472;2023-02-28T12:33:22;6.00;;;1.58;;
41709;SDS011;59402;48.396;-4.472;2023-02-28T12:38:29;8.50;;;2.28;;
41709;SDS011;59402;48.396;-4.472;2023-02-28T12:41:34;6.07;;;1.70;;
41709;SDS011;59402;48.396;-4.472;2023-02-28T12:44:03;7.15;;;1.65;;
41709;SDS011;59402;48.396;-4.472;2023-02-28T12:46:58;8.35;;;2.35;;
41709;SDS011;59402;48.396;-4.472;2023-02-28T12:49:30;13.13;;;2.15;;
41709;SDS011;59402;48.396;-4.472;2023-02-28T12:51:59;7.75;;;2.33;;
41709;SDS011;59402;48.396;-4.472;2023-02-28T12:54:46;5.65;;;1.60;;
41709;SDS011;59402;48.396;-4.472;2023-02-28T12:57:36;9.52;;;1.60;;
41709;SDS011;59402;48.396;-4.472;2023-02-28T13:00:14;4.75;;;1.00;;
41709;SDS011;59402;48.396;-4.472;2023-02-28T13:06:00;5.10;;;1.73;;
41709;SDS011;59402;48.396;-4.472;2023-02-28T13:11:01;4.78;;;1.52;;
41709;SDS011;59402;48.396;-4.472;2023-02-28T13:13:28;4.85;;;1.52;;
41709;SDS011;59402;48.396;-4.472;2023-02-28T13:16:00;4.40;;;1.17;;
41709;SDS011;59402;48.396;-4.472;2023-02-28T13:18:29;6.45;;;1.45;;
41709;SDS011;59402;48.396;-4.472;2023-02-28T13:21:02;3.50;;;1.20;;
41709;SDS011;59402;48.396;-4.472;2023-02-28T13:23:38;5.07;;;1.23;;
41709;SDS011;59402;48.396;-4.472;2023-02-28T13:26:06;6.85;;;1.65;;
41709;SDS011;59402;48.396;-4.472;2023-02-28T13:31:18;8.97;;;1.70;;
41709;SDS011;59402;48.396;-4.472;2023-02-28T13:38:47;7.65;;;1.40;;
41709;SDS011;59402;48.396;-4.472;2023-02-28T13:46:32;3.92;;;1.15;;
41709;SDS011;59402;48.396;-4.472;2023-02-28T13:57:25;7.97;;;1.67;;
41709;SDS011;59402;48.396;-4.472;2023-02-28T14:05:40;8.52;;;1.52;;
41709;SDS011;59402;48.396;-4.472;2023-02-28T14:08:08;6.38;;;1.77;;
41709;SDS011;59402;48.396;-4.472;2023-02-28T14:10:46;4.85;;;1.48;;
41709;SDS011;59402;48.396;-4.472;2023-02-28T14:16:00;6.30;;;1.48;;
41709;SDS011;59402;48.396;-4.472;2023-02-28T14:18:33;5.13;;;1.50;;
41709;SDS011;59402;48.396;-4.472;2023-02-28T14:21:09;5.95;;;1.48;;
41709;SDS011;59402;48.396;-4.472;2023-02-28T14:32:10;4.53;;;0.95;;
41709;SDS011;59402;48.396;-4.472;2023-02-28T14:34:53;6.88;;;1.95;;
41709;SDS011;59402;48.396;-4.472;2023-02-28T14:37:20;7.05;;;1.50;;
41709;SDS011;59402;48.396;-4.472;2023-02-28T14:39:53;5.22;;;1.58;;
41709;SDS011;59402;48.396;-4.472;2023-02-28T14:45:21;10.23;;;1.65;;
41709;SDS011;59402;48.396;-4.472;2023-02-28T14:47:48;6.65;;;1.50;;
41709;SDS011;59402;48.396;-4.472;2023-02-28T14:52:44;6.97;;;1.42;;
41709;SDS011;59402;48.396;-4.472;2023-02-28T14:55:12;8.90;;;1.85;;
41709;SDS011;59402;48.396;-4.472;2023-02-28T14:57:54;6.97;;;1.65;;
41709;SDS011;59402;48.396;-4.472;2023-02-28T15:00:25;7.65;;;1.63;;
41709;SDS011;59402;48.396;-4.472;2023-02-28T15:02:53;7.22;;;1.70;;
41709;SDS011;59402;48.396;-4.472;2023-02-28T15:05:27;6.88;;;1.50;;
41709;SDS011;59402;48.396;-4.472;2023-02-28T15:08:12;5.75;;;1.45;;
41709;SDS011;59402;48.396;-4.472;2023-02-28T15:10:59;9.98;;;1.85;;
41709;SDS011;59402;48.396;-4.472;2023-02-28T15:13:39;6.97;;;1.90;;
41709;SDS011;59402;48.396;-4.472;2023-02-28T15:16:11;9.82;;;1.83;;
41709;SDS011;59402;48.396;-4.472;2023-02-28T15:21:18;6.93;;;1.67;;
41709;SDS011;59402;48.396;-4.472;2023-02-28T15:23:49;9.23;;;1.48;;
41709;SDS011;59402;48.396;-4.472;2023-02-28T15:26:24;9.82;;;2.25;;
41709;SDS011;59402;48.396;-4.472;2023-02-28T15:28:54;10.52;;;1.70;;
41709;SDS011;59402;48.396;-4.472;2023-02-28T15:31:48;12.82;;;1.73;;
41709;SDS011;59402;48.396;-4.472;2023-02-28T15:34:19;7.57;;;1.70;;
41709;SDS011;59402;48.396;-4.472;2023-02-28T15:36:47;7.13;;;1.40;;
41709;SDS011;59402;48.396;-4.472;2023-02-28T15:39:21;6.88;;;1.52;;
41709;SDS011;59402;48.396;-4.472;2023-02-28T15:41:52;9.02;;;1.70;;
41709;SDS011;59402;48.396;-4.472;2023-02-28T15:44:35;6.80;;;1.35;;
41709;SDS011;59402;48.396;-4.472;2023-02-28T15:47:02;9.25;;;1.65;;
41709;SDS011;59402;48.396;-4.472;2023-02-28T15:49:40;7.97;;;1.52;;
41709;SDS011;59402;48.396;-4.472;2023-02-28T15:52:13;6.57;;;1.50;;
41709;SDS011;59402;48.396;-4.472;2023-02-28T15:54:44;9.23;;;1.73;;
41709;SDS011;59402;48.396;-4.472;2023-02-28T15:57:13;6.38;;;1.73;;
41709;SDS011;59402;48.396;-4.472;2023-02-28T15:59:54;11.02;;;2.15;;
41709;SDS011;59402;48.396;-4.472;2023-02-28T16:02:25;6.95;;;1.77;;
41709;SDS011;59402;48.396;-4.472;2023-02-28T16:07:34;7.50;;;1.48;;
41709;SDS011;59402;48.396;-4.472;2023-02-28T16:10:01;4.78;;;1.00;;
41709;SDS011;59402;48.396;-4.472;2023-02-28T16:12:28;6.22;;;1.05;;
41709;SDS011;59402;48.396;-4.472;2023-02-28T16:14:57;8.00;;;1.50;;
41709;SDS011;59402;48.396;-4.472;2023-02-28T16:17:28;7.60;;;1.23;;
41709;SDS011;59402;48.396;-4.472;2023-02-28T16:19:56;9.30;;;1.40;;
41709;SDS011;59402;48.396;-4.472;2023-02-28T16:22:23;9.75;;;1.60;;
41709;SDS011;59402;48.396;-4.472;2023-02-28T16:24:48;6.85;;;1.45;;
41709;SDS011;59402;48.396;-4.472;2023-02-28T16:27:26;8.93;;;1.70;;
41709;SDS011;59402;48.396;-4.472;2023-02-28T16:29:55;8.88;;;1.25;;
41709;SDS011;59402;48.396;-4.472;2023-02-28T16:32:21;5.45;;;1.42;;
41709;SDS011;59402;48.396;-4.472;2023-02-28T16:34:47;6.20;;;1.95;;
41709;SDS011;59402;48.396;-4.472;2023-02-28T16:37:14;8.70;;;1.95;;
41709;SDS011;59402;48.396;-4.472;2023-02-28T16:39:41;5.72;;;1.27;;
41709;SDS011;59402;48.396;-4.472;2023-02-28T16:42:24;9.07;;;1.35;;
41709;SDS011;59402;48.396;-4.472;2023-02-28T16:44:52;8.27;;;1.70;;
41709;SDS011;59402;48.396;-4.472;2023-02-28T16:47:18;10.05;;;1.60;;
41709;SDS011;59402;48.396;-4.472;2023-02-28T16:49:44;7.75;;;1.77;;
41709;SDS011;59402;48.396;-4.472;2023-02-28T16:52:13;8.93;;;1.50;;
41709;SDS011;59402;48.396;-4.472;2023-02-28T16:54:39;9.93;;;2.00;;
41709;SDS011;59402;48.396;-4.472;2023-02-28T16:57:07;6.13;;;1.40;;
41709;SDS011;59402;48.396;-4.472;2023-02-28T16:59:42;8.15;;;1.75;;
41709;SDS011;59402;48.396;-4.472;2023-02-28T17:02:10;10.35;;;1.40;;
41709;SDS011;59402;48.396;-4.472;2023-02-28T17:04:37;9.95;;;1.70;;
41709;SDS011;59402;48.396;-4.472;2023-02-28T17:07:03;10.95;;;2.17;;
41709;SDS011;59402;48.396;-4.472;2023-02-28T17:09:28;10.15;;;1.60;;
41709;SDS011;59402;48.396;-4.472;2023-02-28T17:11:54;9.23;;;2.08;;
41709;SDS011;59402;48.396;-4.472;2023-02-28T17:14:21;8.32;;;1.73;;
41709;SDS011;59402;48.396;-4.472;2023-02-28T17:16:48;8.83;;;2.07;;